x

Port Aransas, Tx (ptat2) Weather Station

6:00pm - Mon 20th Aug 2018 All times are CDT. -5 hours from GMT.

  • Wind
    14mph, 16mph gusts
  • Sea Temp 86°f
  • Air Temp 84°f
  • Sea Pressure 1014.6mb
  • Port Aransas, Tx
  • Port Aransas, Tx

More Historic Weather Station data

Upgrade to MSW Pro to gain access to the past 30 days of data for over 8000 Wavebouys and Weather Stations around the globe.

Join

Comparision Forecast

View Surf forecast
   
Mon 08/20 6:00pm 14 16 mph 1014.6mb 86f 84f
5:00pm 14 15 mph 1014.4mb 86f 84f
4:00pm 14 15 mph 1014.6mb 86f 84f
3:00pm 13 14 mph 1015.5mb 85f 84f
2:00pm 10 11 mph 1016.1mb 85f 84f
1:00pm 10 10 mph 1016.1mb 85f 83f
12:00pm 9 9 mph 1016.4mb 84f 83f
11:00am 6 6 mph 1016.5mb 83f 83f
10:00am 3 5 mph 1016.3mb 83f 83f
9:00am 5 5 mph 1015.5mb 83f 82f
8:00am 5 6 mph 1014.9mb 83f 81f
7:00am 7 8 mph 1014.5mb 83f 81f
6:00am 8 9 mph 1014mb 83f 81f
5:00am 10 11 mph 1013.7mb 83f 81f
4:00am 14 15 mph 1013.5mb 84f 82f
3:00am 13 14 mph 1013.3mb 84f 82f
2:00am 16 18 mph 1013.3mb 84f 82f
1:00am 16 18 mph 1013.5mb 84f 82f
12:00am 21 24 mph 1012.9mb 85f 83f
Sun 08/19 11:00pm 20 22 mph 1012.7mb 85f 83f
10:00pm 20 21 mph 1012.1mb 85f 83f
9:00pm 21 22 mph 1011.2mb 85f 83f
8:00pm 20 22 mph 1010.9mb 86f 83f
7:00pm 18 22 mph 1010.7mb 86f 83f
6:00pm 20 24 mph 1010.8mb 86f 83f
5:00pm 21 23 mph 1011.2mb 86f 84f
4:00pm 18 21 mph 1011.7mb 86f 83f
3:00pm 17 20 mph 1012.2mb 86f 83f
2:00pm 16 18 mph 1013mb 85f 83f
1:00pm 17 20 mph 1013.2mb 85f 83f
12:00pm 16 18 mph 1013.7mb 84f 82f
11:00am 16 17 mph 1014mb 84f 82f
10:00am 17 20 mph 1013.6mb 84f 82f
9:00am 17 20 mph 1013.3mb 84f 82f
8:00am 17 18 mph 1013.2mb 84f 82f
7:00am 16 17 mph 1012.6mb 84f 82f
5:00am 16 18 mph 1012.1mb 84f 82f
4:00am 17 18 mph 1012.2mb 85f 82f
3:00am 17 18 mph 1012.5mb 85f 82f
2:00am 16 18 mph 1013.3mb 85f 82f
1:00am 16 17 mph 1013.7mb 85f 83f
12:00am 14 15 mph 1014mb 86f 83f
Sat 08/18 11:00pm 15 16 mph 1013.8mb 86f 83f
10:00pm 14 15 mph 1013.5mb 87f 83f
9:00pm 18 21 mph 1012.9mb 88f 83f
8:00pm 16 18 mph 1012.7mb 88f 83f
7:00pm 17 18 mph 1012.8mb 88f 84f
6:00pm 16 17 mph 1013.1mb 88f 84f
5:00pm 14 15 mph 1013.8mb 88f 84f
4:00pm 13 14 mph 1014.6mb 87f 84f
3:00pm 11 13 mph 1015.4mb 87f 83f
2:00pm 10 11 mph 1016.3mb 87f 84f
1:00pm 8 9 mph 1016.6mb 86f 83f
12:00pm 9 10 mph 1017.1mb 85f 83f
11:00am 7 7 mph 1017.3mb 85f 83f
10:00am 6 6 mph 1017.1mb 85f 82f
9:00am 6 8 mph 1017mb 85f 82f
8:00am 11 13 mph 1016.8mb 85f 82f
7:00am 11 13 mph 1016.7mb 85f 82f
6:00am 13 14 mph 1016.5mb 85f 82f
5:00am 11 13 mph 1016.8mb 85f 82f
4:00am 15 16 mph 1016.2mb 86f 82f
3:00am 13 14 mph 1016.7mb 86f 83f
2:00am 14 15 mph 1017mb 86f 83f
1:00am 13 14 mph 1017.4mb 86f 83f
12:00am 14 15 mph 1017.5mb 86f 83f
Fri 08/17 11:00pm 15 16 mph 1017.6mb 87f 83f
10:00pm 15 17 mph 1017.1mb 87f 83f
9:00pm 16 17 mph 1016.4mb 87f 84f
8:00pm 16 17 mph 1015.9mb 87f 84f
7:00pm 17 20 mph 1015.9mb 87f 84f
6:00pm 17 18 mph 1016mb 87f 84f
5:00pm 14 16 mph 1016.2mb 87f 84f
4:00pm 15 15 mph 1016.8mb 87f 85f
3:00pm 13 14 mph 1017.3mb 87f 84f
2:00pm 10 10 mph 1017.8mb 86f 84f
1:00pm 9 10 mph 1018.2mb 86f 84f
12:00pm 6 7 mph 1018.5mb 85f 83f
11:00am 7 8 mph 1018.4mb 85f 83f
10:00am 9 9 mph 1018mb 84f 82f
9:00am 9 11 mph 1017.8mb 84f 83f
8:00am 11 11 mph 1017.4mb 84f 83f
7:00am 14 15 mph 1016.9mb 84f 82f
6:00am 11 13 mph 1016.8mb 85f 82f
5:00am 13 13 mph 1016.9mb 85f 82f
4:00am 14 15 mph 1017mb 85f 82f
3:00am 14 15 mph 1017mb 85f 83f
2:00am 14 16 mph 1017.2mb 86f 83f
1:00am 13 14 mph 1017.6mb 86f 83f